Aérodrome :
LOGIN :

S'inscrire | Disclaimer

   EN    FR    IT 

 










Légende :    VFR   VFR Marginal   IFR   IFR Intensif   IFR Très Intensif
Visi : 
Plafond : 
>= 8 km
>= 3000ft
5 à 8 km
1000 à 3000 ft
1500m à 5 km
500 à 1000 ft
800 à 1500m
200 à 500 ft
< 800m
< 200 ft
Symboles :   Orages  Brouillard  Fortes neiges  Fortes précipitations  Vent > 20 kt
SIGMETs :   Divers  Orages  Givrage  Turbulence  Onde Orograph.  Cendres Volcan.







- Altitude de l'aérodrome : 1682 ft
- Code IATA : VIT


LEVT - Vitoria Gasteiz

DERNIER METAR :
  • 132030Z 00000KT 8000 FEW020 07/07 Q1026

METARs EXPIRÉS :
  • 132000Z 00000KT 8000 FEW020 07/07 Q1026
  • 131930Z 00000KT 9999 FEW020 07/07 Q1026
  • 131900Z 00000KT 9999 FEW020 08/08 Q1026
  • 131830Z 00000KT 9999 FEW020 09/09 Q1026
  • 131800Z VRB01KT 9999 FEW020 10/10 Q1026

TAF TAF LEVT
Valide du 13 à 18h jusqu'au 14 à 18h UTC


131700Z 1318/1418 VRB05KT 9999 SCT020 TX16/1414Z TN03/1407Z
PROB40
TEMPO 1321/1406 3000 BR BKN005
PROB40
TEMPO 1400/1406 0350 FG VV001
BECMG 1400/1404 19010KT
Pas de NOTAMs connus pour ce terrain.



MET'MAP, la Météo Aéronautique d'un coup d'oeil ! - Copyright ORBIFLY Décembre 2007 - Disclaimer

ORBIFLY MET'MAP TEAM :

Programmation & Développement : Alexandra Zaïnal
Conception & Développement : Baudouin d'Aumeries
Co-Programmation & Développement : Marc-Olivier Méhu
Soutien technique & logistique : Manuel Goepfert

Contact : metmap@orbifly.com




SOURCES & CREDITS :

   NOAA